Time;durP1;ratioP1;P1;durP2;ratioP2;P2;SDS_P1;SDS_P2;PMS_P1;PMS_P2;Temp;Humidity;BMP_temperature;BMP_pressure;BME280_temperature;BME280_humidity;BME280_pressure;Samples;Min_cycle;Max_cycle;Signal;HPM_P1;HPM_P2
2022/01/27 00:03:26;;;;;;;;;;;;;;;;;;5038896;28;1230;-74
2022/01/27 00:06:00;;;;;;;;;;;;;;;;;;5094409;28;850;-74
2022/01/27 00:08:32;;;;;;;;;;;;;;;;;;5093911;28;1076;-74
2022/01/27 00:11:07;;;;;;;;;;;;;;;;;;5094084;28;844;-74
2022/01/27 00:13:43;;;;;;;;;;;;;;;;;;5093254;28;885;-74
2022/01/27 00:16:16;;;;;;;;;;;;;;;;;;5093973;28;1961;-73
2022/01/27 00:18:43;;;;;;;;;;;;;;;;;;5093810;28;889;-73
2022/01/27 00:21:08;;;;;;;;;;;;;;;;;;5094039;28;805;-74
2022/01/27 00:23:34;;;;;;;;;;;;;;;;;;5093193;28;852;-73
2022/01/27 00:25:59;;;;;;;;;;;;;;;;;;5094217;28;1007;-74
2022/01/27 00:28:25;;;;;;;;;;;;;;;;;;5093595;28;955;-74
2022/01/27 00:30:50;;;;;;;;;;;;;;;;;;5075635;28;1157;-73
2022/01/27 00:33:15;;;;;;;;;;;;;;;;;;5093586;28;1286;-74
2022/01/27 00:35:41;;;;;;;;;;;;;;;;;;5093705;28;904;-73
2022/01/27 00:38:06;;;;;;;;;;;;;;;;;;5075837;28;1914;-75
2022/01/27 00:40:31;;;;;;;;;;;;;;;;;;5093327;28;955;-74
2022/01/27 00:42:57;;;;;;;;;;;;;;;;;;5093425;28;1385;-73
2022/01/27 00:45:24;;;;;;;;;;;;;;;;;;5093528;28;848;-74
2022/01/27 00:47:50;;;;;;;;;;;;;;;;;;5075704;28;892;-74
2022/01/27 00:50:18;;;;;;;;;;;;;;;;;;5093451;28;820;-74
2022/01/27 00:52:48;;;;;;;;;;;;;;;;;;5074917;28;1512;-73
2022/01/27 00:55:14;;;;;;;;;;;;;;;;;;5093241;28;912;-73
2022/01/27 01:00:52;;;;;;;;;;;;;;;;;;5010361;28;1324;-73
2022/01/27 01:03:29;;;;;;;;;;;;;;;;;;5010553;28;857;-73
2022/01/27 01:35:07;;;;;;;;;;;;;;;;;;5092615;28;1195;-73
2022/01/27 01:37:38;;;;;;;;;;;;;;;;;;5092955;28;1906;-77
2022/01/27 01:40:05;;;;;;;;;;;;;;;;;;5093329;28;797;-77
2022/01/27 01:42:31;;;;;;;;;;;;;;;;;;5093296;28;888;-76
2022/01/27 01:45:00;;;;;;;;;;;;;;;;;;5093053;28;1015;-76
2022/01/27 01:47:26;;;;;;;;;;;;;;;;;;5092573;28;848;-77
2022/01/27 01:49:51;;;;;;;;;;;;;;;;;;5093383;28;846;-77
2022/01/27 01:52:16;;;;;;;;;;;;;;;;;;5093134;28;912;-77
2022/01/27 01:54:42;;;;;;;;;;;;;;;;;;5075825;28;1019;-76
2022/01/27 01:57:07;;;;;;;;;;;;;;;;;;5095729;28;1887;-77
2022/01/27 01:59:35;;;;;;;;;;;;;;;;;;5075730;28;1236;-76
2022/01/27 02:02:01;;;;;;;;;;;;;;;;;;5093597;28;817;-77
2022/01/27 02:04:26;;;;;;;;;;;;;;;;;;5093744;28;864;-77
2022/01/27 02:06:59;;;;;;;;;;;;;;;;;;5097054;28;848;-77
2022/01/27 02:20:03;;;;;;;;;;;;;;;;;;5095184;28;623;-76
2022/01/27 02:22:28;;;;;;;;;;;;;;;;;;5094073;28;1121;-76
2022/01/27 02:24:54;;;;;;;;;;;;;;;;;;5093534;28;886;-77
2022/01/27 02:27:19;;;;;;;;;;;;;;;;;;5094610;28;900;-76
2022/01/27 02:29:45;;;;;;;;;;;;;;;;;;5093329;28;936;-76
2022/01/27 02:32:11;;;;;;;;;;;;;;;;;;5093557;28;954;-76
2022/01/27 02:34:37;;;;;;;;;;;;;;;;;;5092027;28;1184;-76
2022/01/27 02:37:02;;;;;;;;;;;;;;;;;;5092415;28;1905;-77
2022/01/27 02:39:28;;;;;;;;;;;;;;;;;;5092207;28;963;-76
2022/01/27 02:42:16;;;;;;;;;;;;;;;;;;5092037;28;934;-76
2022/01/27 02:44:47;;;;;;;;;;;;;;;;;;5081601;28;1723;-75
2022/01/27 02:47:13;;;;;;;;;;;;;;;;;;5092581;28;840;-76
2022/01/27 02:49:39;;;;;;;;;;;;;;;;;;5092463;28;852;-76
2022/01/27 02:52:04;;;;;;;;;;;;;;;;;;5092274;28;786;-76
2022/01/27 02:54:29;;;;;;;;;;;;;;;;;;5073884;28;882;-76
2022/01/27 02:56:55;;;;;;;;;;;;;;;;;;5092199;28;1905;-76
2022/01/27 02:59:21;;;;;;;;;;;;;;;;;;5092567;28;915;-76
2022/01/27 03:01:50;;;;;;;;;;;;;;;;;;5091767;28;908;-76
2022/01/27 03:04:18;;;;;;;;;;;;;;;;;;5092630;28;840;-73
2022/01/27 03:06:45;;;;;;;;;;;;;;;;;;5072554;28;1235;-73
2022/01/27 03:09:11;;;;;;;;;;;;;;;;;;5091324;28;861;-75
2022/01/27 03:11:57;;;;;;;;;;;;;;;;;;5091436;28;868;-73
2022/01/27 03:14:23;;;;;;;;;;;;;;;;;;5073191;28;943;-73
2022/01/27 03:16:52;;;;;;;;;;;;;;;;;;5073485;28;1902;-73
2022/01/27 03:19:17;;;;;;;;;;;;;;;;;;5073307;28;1173;-73
2022/01/27 03:21:43;;;;;;;;;;;;;;;;;;5072987;28;1046;-74
2022/01/27 03:24:09;;;;;;;;;;;;;;;;;;5090973;28;1141;-73
2022/01/27 03:26:34;;;;;;;;;;;;;;;;;;5073002;28;1463;-73
2022/01/27 03:29:00;;;;;;;;;;;;;;;;;;5091563;28;927;-73
2022/01/27 03:31:26;;;;;;;;;;;;;;;;;;5073031;28;923;-74
2022/01/27 03:33:52;;;;;;;;;;;;;;;;;;5091394;28;1441;-73
2022/01/27 03:36:17;;;;;;;;;;;;;;;;;;5092854;28;1955;-74
2022/01/27 03:38:43;;;;;;;;;;;;;;;;;;5060795;28;1311;-73
2022/01/27 03:41:09;;;;;;;;;;;;;;;;;;5095206;28;905;-72
2022/01/27 03:43:35;;;;;;;;;;;;;;;;;;5095192;28;912;-73
2022/01/27 03:46:01;;;;;;;;;;;;;;;;;;5095390;28;1018;-71
2022/01/27 03:48:26;;;;;;;;;;;;;;;;;;5095100;28;990;-74
2022/01/27 03:50:52;;;;;;;;;;;;;;;;;;5095584;28;991;-72
2022/01/27 03:53:17;;;;;;;;;;;;;;;;;;5076759;28;1030;-73
2022/01/27 03:55:43;;;;;;;;;;;;;;;;;;5094717;28;821;-72
2022/01/27 03:58:08;;;;;;;;;;;;;;;;;;5094923;28;1913;-74
2022/01/27 04:00:34;;;;;;;;;;;;;;;;;;5077274;28;1283;-73
2022/01/27 04:03:05;;;;;;;;;;;;;;;;;;5095083;28;876;-74
2022/01/27 04:05:36;;;;;;;;;;;;;;;;;;5077852;28;856;-75
2022/01/27 04:08:02;;;;;;;;;;;;;;;;;;5094682;28;931;-75
2022/01/27 04:10:27;;;;;;;;;;;;;;;;;;5076158;28;1263;-75
2022/01/27 04:12:53;;;;;;;;;;;;;;;;;;5095041;28;907;-75
2022/01/27 04:15:19;;;;;;;;;;;;;;;;;;5076234;28;856;-75
2022/01/27 04:17:44;;;;;;;;;;;;;;;;;;5059521;28;1973;-74
2022/01/27 04:20:09;;;;;;;;;;;;;;;;;;5075980;28;909;-74
2022/01/27 04:22:35;;;;;;;;;;;;;;;;;;5094169;28;833;-75
2022/01/27 04:25:00;;;;;;;;;;;;;;;;;;5075486;28;1050;-74
2022/01/27 04:27:30;;;;;;;;;;;;;;;;;;5094650;28;765;-74
2022/01/27 04:29:56;;;;;;;;;;;;;;;;;;5094288;28;778;-75
2022/01/27 04:32:26;;;;;;;;;;;;;;;;;;5076425;28;800;-74
2022/01/27 04:34:54;;;;;;;;;;;;;;;;;;5075691;28;1085;-75
2022/01/27 04:37:23;;;;;;;;;;;;;;;;;;5075699;28;1909;-75
2022/01/27 04:40:27;;;;;;;;;;;;;;;;;;5075877;28;1801;-75
2022/01/27 04:45:07;;;;;;;;;;;;;;;;;;5094292;28;964;-77
2022/01/27 04:47:39;;;;;;;;;;;;;;;;;;5094007;28;837;-77
2022/01/27 04:50:04;;;;;;;;;;;;;;;;;;5094406;28;939;-77
2022/01/27 04:52:33;;;;;;;;;;;;;;;;;;5075670;28;897;-77
2022/01/27 04:55:04;;;;;;;;;;;;;;;;;;5059635;28;1323;-77
2022/01/27 04:57:31;;;;;;;;;;;;;;;;;;5094313;28;1893;-77
2022/01/27 04:59:56;;;;;;;;;;;;;;;;;;5076653;28;833;-77
2022/01/27 05:02:40;;;;;;;;;;;;;;;;;;5094210;28;931;-78
2022/01/27 05:05:05;;;;;;;;;;;;;;;;;;5094004;28;924;-77
2022/01/27 05:07:31;;;;;;;;;;;;;;;;;;5075635;28;1378;-77
2022/01/27 05:10:01;;;;;;;;;;;;;;;;;;5094432;28;852;-78
2022/01/27 05:12:40;;;;;;;;;;;;;;;;;;5094268;28;848;-78
2022/01/27 05:15:06;;;;;;;;;;;;;;;;;;5094079;28;860;-78
2022/01/27 05:17:31;;;;;;;;;;;;;;;;;;5074844;28;1902;-74
2022/01/27 05:19:57;;;;;;;;;;;;;;;;;;5093929;28;1131;-75
2022/01/27 05:22:22;;;;;;;;;;;;;;;;;;5058893;28;779;-75
2022/01/27 05:24:47;;;;;;;;;;;;;;;;;;5075473;28;971;-74
2022/01/27 05:27:13;;;;;;;;;;;;;;;;;;5093585;28;830;-74
2022/01/27 05:29:38;;;;;;;;;;;;;;;;;;5093561;28;889;-74
2022/01/27 05:32:03;;;;;;;;;;;;;;;;;;5074912;28;936;-74
2022/01/27 05:34:29;;;;;;;;;;;;;;;;;;5074673;28;1260;-75
2022/01/27 05:36:54;;;;;;;;;;;;;;;;;;5093322;28;1910;-74
2022/01/27 05:39:19;;;;;;;;;;;;;;;;;;5093568;28;860;-74
2022/01/27 05:41:45;;;;;;;;;;;;;;;;;;5093304;28;790;-74
2022/01/27 05:44:10;;;;;;;;;;;;;;;;;;5075547;28;987;-74
2022/01/27 05:46:35;;;;;;;;;;;;;;;;;;5093106;28;987;-74
2022/01/27 05:49:01;;;;;;;;;;;;;;;;;;5093138;28;802;-75
2022/01/27 05:51:26;;;;;;;;;;;;;;;;;;5074996;28;1347;-74
2022/01/27 05:53:51;;;;;;;;;;;;;;;;;;5093110;28;966;-75
2022/01/27 05:56:17;;;;;;;;;;;;;;;;;;5057622;28;2000;-74
2022/01/27 05:58:42;;;;;;;;;;;;;;;;;;5073889;28;1667;-74
2022/01/27 06:01:08;;;;;;;;;;;;;;;;;;5073794;28;1215;-74
2022/01/27 06:03:33;;;;;;;;;;;;;;;;;;5090130;28;1152;-74
2022/01/27 06:05:58;;;;;;;;;;;;;;;;;;5090455;28;1141;-74
2022/01/27 06:08:25;;;;;;;;;;;;;;;;;;5072500;28;1531;-74
2022/01/27 06:10:50;;;;;;;;;;;;;;;;;;5054960;28;1125;-74
2022/01/27 06:13:16;;;;;;;;;;;;;;;;;;5092518;28;876;-74
2022/01/27 06:15:41;;;;;;;;;;;;;;;;;;5092419;28;919;-73
2022/01/27 06:18:06;;;;;;;;;;;;;;;;;;5073977;28;1906;-74
2022/01/27 06:20:32;;;;;;;;;;;;;;;;;;5092242;28;907;-75
2022/01/27 06:22:58;;;;;;;;;;;;;;;;;;5057488;28;1540;-74
2022/01/27 06:25:24;;;;;;;;;;;;;;;;;;5092711;28;973;-74
2022/01/27 06:27:50;;;;;;;;;;;;;;;;;;5092720;28;802;-78
2022/01/27 06:30:15;;;;;;;;;;;;;;;;;;5074392;28;1256;-78
2022/01/27 06:32:41;;;;;;;;;;;;;;;;;;5074803;28;1456;-78
2022/01/27 06:35:07;;;;;;;;;;;;;;;;;;5092672;28;1164;-79
2022/01/27 06:37:33;;;;;;;;;;;;;;;;;;5073844;28;1965;-79
2022/01/27 06:39:59;;;;;;;;;;;;;;;;;;5073999;28;1267;-79
2022/01/27 06:42:24;;;;;;;;;;;;;;;;;;5092615;28;1150;-78
2022/01/27 06:44:50;;;;;;;;;;;;;;;;;;5092671;28;1015;-78
2022/01/27 06:47:15;;;;;;;;;;;;;;;;;;5093046;28;762;-77
2022/01/27 06:49:43;;;;;;;;;;;;;;;;;;5093475;28;824;-78
2022/01/27 06:52:08;;;;;;;;;;;;;;;;;;5093079;28;900;-78
2022/01/27 06:54:33;;;;;;;;;;;;;;;;;;5092761;28;976;-78
2022/01/27 06:56:59;;;;;;;;;;;;;;;;;;5074614;28;1906;-79
2022/01/27 06:59:24;;;;;;;;;;;;;;;;;;5092891;28;848;-79
2022/01/27 07:01:50;;;;;;;;;;;;;;;;;;5075051;28;1381;-78
2022/01/27 07:04:15;;;;;;;;;;;;;;;;;;5074497;28;877;-79
2022/01/27 07:06:40;;;;;;;;;;;;;;;;;;5092599;28;873;-78
2022/01/27 07:09:06;;;;;;;;;;;;;;;;;;5057844;28;1251;-79
2022/01/27 07:11:31;;;;;;;;;;;;;;;;;;5073361;28;1235;-78
2022/01/27 07:13:57;;;;;;;;;;;;;;;;;;5058040;28;923;-79
2022/01/27 07:16:22;;;;;;;;;;;;;;;;;;5057792;28;1969;-78
2022/01/27 07:18:47;;;;;;;;;;;;;;;;;;5092474;28;868;-78
2022/01/27 07:21:12;;;;;;;;;;;;;;;;;;5092319;28;932;-79
2022/01/27 07:23:38;;;;;;;;;;;;;;;;;;5091945;28;900;-79
2022/01/27 07:26:04;;;;;;;;;;;;;;;;;;5092564;28;956;-81
2022/01/27 07:28:29;;;;;;;;;;;;;;;;;;5092480;28;841;-80
2022/01/27 07:30:54;;;;;;;;;;;;;;;;;;5057410;28;1138;-78
2022/01/27 07:33:20;;;;;;;;;;;;;;;;;;5091119;28;1203;-79
2022/01/27 07:35:45;;;;;;;;;;;;;;;;;;5073114;28;1678;-79
2022/01/27 07:38:11;;;;;;;;;;;;;;;;;;5092380;28;1937;-79
2022/01/27 07:40:36;;;;;;;;;;;;;;;;;;5091739;28;832;-79
2022/01/27 07:43:01;;;;;;;;;;;;;;;;;;5091868;28;809;-80
2022/01/27 07:45:27;;;;;;;;;;;;;;;;;;5073064;28;1500;-80
2022/01/27 07:47:52;;;;;;;;;;;;;;;;;;5057431;28;1285;-78
2022/01/27 07:50:18;;;;;;;;;;;;;;;;;;5092202;28;840;-78
2022/01/27 07:52:43;;;;;;;;;;;;;;;;;;5091883;28;808;-79
2022/01/27 07:55:09;;;;;;;;;;;;;;;;;;5071588;28;1181;-79
2022/01/27 07:57:34;;;;;;;;;;;;;;;;;;5072028;28;1910;-79
2022/01/27 08:00:00;;;;;;;;;;;;;;;;;;5073628;28;1125;-79
2022/01/27 08:02:25;;;;;;;;;;;;;;;;;;5092064;28;800;-78
2022/01/27 08:04:50;;;;;;;;;;;;;;;;;;5074036;28;1175;-79
2022/01/27 08:07:15;;;;;;;;;;;;;;;;;;5092137;28;1315;-79
2022/01/27 08:09:41;;;;;;;;;;;;;;;;;;5074080;28;853;-78
2022/01/27 08:12:06;;;;;;;;;;;;;;;;;;5074151;28;895;-79
2022/01/27 08:14:31;;;;;;;;;;;;;;;;;;5092394;28;1353;-79
2022/01/27 08:16:57;;;;;;;;;;;;;;;;;;5057260;28;1902;-79
2022/01/27 08:19:22;;;;;;;;;;;;;;;;;;5092598;28;920;-79
2022/01/27 08:21:47;;;;;;;;;;;;;;;;;;5074535;28;1269;-80
2022/01/27 08:24:14;;;;;;;;;;;;;;;;;;5096698;28;994;-79
2022/01/27 08:26:43;;;;;;;;;;;;;;;;;;5078033;28;910;-76
2022/01/27 08:29:29;;;;;;;;;;;;;;;;;;5078180;28;888;-79
2022/01/27 08:32:02;;;;;;;;;;;;;;;;;;5076905;28;1443;-79
2022/01/27 08:34:35;;;;;;;;;;;;;;;;;;5073812;28;1253;-79
2022/01/27 08:37:05;;;;;;;;;;;;;;;;;;5075869;28;1971;-79
2022/01/27 08:39:31;;;;;;;;;;;;;;;;;;5075463;28;928;-77
2022/01/27 08:41:56;;;;;;;;;;;;;;;;;;5075758;28;907;-79
2022/01/27 08:44:21;;;;;;;;;;;;;;;;;;5058376;28;1089;-79
2022/01/27 08:46:47;;;;;;;;;;;;;;;;;;5075259;28;856;-79
2022/01/27 08:49:12;;;;;;;;;;;;;;;;;;5075798;28;801;-79
2022/01/27 08:51:38;;;;;;;;;;;;;;;;;;5075346;28;932;-79
2022/01/27 08:54:03;;;;;;;;;;;;;;;;;;5075891;28;888;-78
2022/01/27 08:56:29;;;;;;;;;;;;;;;;;;5073699;28;1906;-79
2022/01/27 08:58:54;;;;;;;;;;;;;;;;;;5075724;28;754;-78
2022/01/27 09:01:22;;;;;;;;;;;;;;;;;;5076899;28;912;-77
2022/01/27 09:03:47;;;;;;;;;;;;;;;;;;5075484;28;919;-78
2022/01/27 09:06:13;;;;;;;;;;;;;;;;;;5073559;28;919;-78
2022/01/27 09:08:38;;;;;;;;;;;;;;;;;;5072685;28;1340;-78
2022/01/27 09:11:03;;;;;;;;;;;;;;;;;;5073039;28;798;-79
2022/01/27 09:13:29;;;;;;;;;;;;;;;;;;5074174;28;825;-78
2022/01/27 09:15:58;;;;;;;;;;;;;;;;;;5056641;28;1251;-77
2022/01/27 09:18:23;;;;;;;;;;;;;;;;;;5074289;28;1980;-77
2022/01/27 09:20:49;;;;;;;;;;;;;;;;;;5072808;28;1237;-78
2022/01/27 09:23:14;;;;;;;;;;;;;;;;;;5074137;28;778;-77
2022/01/27 09:25:48;;;;;;;;;;;;;;;;;;5072110;28;1567;-78
2022/01/27 09:28:14;;;;;;;;;;;;;;;;;;5074216;28;987;-77
2022/01/27 09:30:40;;;;;;;;;;;;;;;;;;5074132;28;828;-77
2022/01/27 09:33:06;;;;;;;;;;;;;;;;;;5073703;28;837;-77
2022/01/27 09:35:31;;;;;;;;;;;;;;;;;;5089248;28;1143;-77
2022/01/27 09:37:57;;;;;;;;;;;;;;;;;;5093745;28;1902;-78
2022/01/27 09:40:22;;;;;;;;;;;;;;;;;;5094440;28;863;-78
2022/01/27 09:42:51;;;;;;;;;;;;;;;;;;5093628;28;872;-78
2022/01/27 09:45:17;;;;;;;;;;;;;;;;;;5076335;28;1351;-78
2022/01/27 09:47:43;;;;;;;;;;;;;;;;;;5093286;28;931;-77
2022/01/27 09:52:40;;;;;;;;;;;;;;;;;;5093675;28;942;-76
2022/01/27 09:55:05;;;;;;;;;;;;;;;;;;5094094;28;979;-75
2022/01/27 09:57:31;;;;;;;;;;;;;;;;;;5093596;28;1956;-75
2022/01/27 09:59:56;;;;;;;;;;;;;;;;;;5076142;28;899;-75
2022/01/27 10:02:22;;;;;;;;;;;;;;;;;;5094244;28;856;-76
2022/01/27 10:04:48;;;;;;;;;;;;;;;;;;5094762;28;923;-75
2022/01/27 10:07:19;;;;;;;;;;;;;;;;;;5075221;28;1048;-76
2022/01/27 10:09:56;;;;;;;;;;;;;;;;;;5093500;28;945;-75
2022/01/27 10:12:30;;;;;;;;;;;;;;;;;;5093970;28;833;-73
2022/01/27 10:15:00;;;;;;;;;;;;;;;;;;5093764;28;821;-73
2022/01/27 10:17:25;;;;;;;;;;;;;;;;;;5093220;28;1902;-73
2022/01/27 10:19:54;;;;;;;;;;;;;;;;;;5075148;28;1299;-73
2022/01/27 10:22:20;;;;;;;;;;;;;;;;;;5093353;28;860;-72
2022/01/27 10:24:45;;;;;;;;;;;;;;;;;;5074597;28;1053;-73
2022/01/27 10:27:24;;;;;;;;;;;;;;;;;;5059215;28;995;-73
2022/01/27 10:32:40;;;;;;;;;;;;;;;;;;5092952;28;778;-72
2022/01/27 10:35:06;;;;;;;;;;;;;;;;;;5093705;28;1216;-72
2022/01/27 10:37:51;;;;;;;;;;;;;;;;;;5074972;28;1906;-72
2022/01/27 10:40:36;;;;;;;;;;;;;;;;;;5093795;28;864;-72
2022/01/27 10:43:03;;;;;;;;;;;;;;;;;;5092342;28;1410;-72
2022/01/27 10:45:29;;;;;;;;;;;;;;;;;;5076877;28;1156;-72
2022/01/27 10:48:08;;;;;;;;;;;;;;;;;;5076297;28;1317;-72
2022/01/27 10:50:47;;;;;;;;;;;;;;;;;;5093930;28;922;-73
2022/01/27 10:53:12;;;;;;;;;;;;;;;;;;5094313;28;880;-72
2022/01/27 10:55:37;;;;;;;;;;;;;;;;;;5094329;28;908;-72
2022/01/27 10:58:23;;;;;;;;;;;;;;;;;;5076053;28;1906;-72
2022/01/27 11:00:55;;;;;;;;;;;;;;;;;;5076160;28;1353;-72
2022/01/27 11:03:20;;;;;;;;;;;;;;;;;;5100254;28;852;-72
2022/01/27 11:05:46;;;;;;;;;;;;;;;;;;5070416;28;1158;-72
2022/01/27 11:08:11;;;;;;;;;;;;;;;;;;5103821;28;1031;-73
2022/01/27 11:10:37;;;;;;;;;;;;;;;;;;5062997;28;1306;-73
2022/01/27 11:13:02;;;;;;;;;;;;;;;;;;5096917;28;1066;-73
2022/01/27 11:15:28;;;;;;;;;;;;;;;;;;5076860;28;1068;-72
2022/01/27 11:17:55;;;;;;;;;;;;;;;;;;5075225;28;1910;-72
2022/01/27 11:27:51;;;;;;;;;;;;;;;;;;5092466;28;876;-73
2022/01/27 11:30:22;;;;;;;;;;;;;;;;;;5074264;28;1354;-73
2022/01/27 11:33:08;;;;;;;;;;;;;;;;;;5092385;28;1009;-72
2022/01/27 11:35:33;;;;;;;;;;;;;;;;;;5073897;28;1321;-73
2022/01/27 11:38:03;;;;;;;;;;;;;;;;;;5073140;28;1898;-73
2022/01/27 11:40:37;;;;;;;;;;;;;;;;;;5092352;28;927;-73
2022/01/27 11:43:33;;;;;;;;;;;;;;;;;;5092123;28;896;-73
2022/01/27 11:46:22;;;;;;;;;;;;;;;;;;5072955;28;1215;-73
2022/01/27 11:48:47;;;;;;;;;;;;;;;;;;5073319;28;970;-72
2022/01/27 11:51:13;;;;;;;;;;;;;;;;;;5073519;28;1167;-73
2022/01/27 11:53:43;;;;;;;;;;;;;;;;;;5091180;28;841;-73
2022/01/27 11:56:31;;;;;;;;;;;;;;;;;;5073875;28;1160;-73
2022/01/27 11:58:56;;;;;;;;;;;;;;;;;;5064801;28;1392;-73
2022/01/27 12:01:23;;;;;;;;;;;;;;;;;;5077637;28;1262;-73
2022/01/27 12:04:04;;;;;;;;;;;;;;;;;;5095424;28;857;-73
2022/01/27 12:06:53;;;;;;;;;;;;;;;;;;5096716;28;939;-73
2022/01/27 12:09:18;;;;;;;;;;;;;;;;;;5065684;28;1157;-73
2022/01/27 12:11:51;;;;;;;;;;;;;;;;;;5095112;28;866;-73
2022/01/27 12:14:21;;;;;;;;;;;;;;;;;;5077570;28;892;-73
2022/01/27 12:17:08;;;;;;;;;;;;;;;;;;5095811;28;1955;-73
2022/01/27 12:19:47;;;;;;;;;;;;;;;;;;5062716;28;1208;-73
2022/01/27 12:22:14;;;;;;;;;;;;;;;;;;5076688;28;1377;-73
2022/01/27 12:24:50;;;;;;;;;;;;;;;;;;5095485;28;862;-73
2022/01/27 12:27:18;;;;;;;;;;;;;;;;;;5077089;28;1461;-73
2022/01/27 12:29:48;;;;;;;;;;;;;;;;;;5095039;28;880;-73
2022/01/27 12:32:16;;;;;;;;;;;;;;;;;;5095570;28;850;-73
2022/01/27 12:34:45;;;;;;;;;;;;;;;;;;5095277;28;1233;-72
2022/01/27 12:37:12;;;;;;;;;;;;;;;;;;5076407;28;1967;-73
2022/01/27 12:39:41;;;;;;;;;;;;;;;;;;5094256;28;1007;-73
2022/01/27 12:42:09;;;;;;;;;;;;;;;;;;5078093;28;1187;-74
2022/01/27 12:44:35;;;;;;;;;;;;;;;;;;5095615;28;856;-75
2022/01/27 12:47:04;;;;;;;;;;;;;;;;;;5077248;28;848;-76
2022/01/27 12:49:36;;;;;;;;;;;;;;;;;;5096709;28;891;-76
2022/01/27 12:52:01;;;;;;;;;;;;;;;;;;5096716;28;895;-76
2022/01/27 12:54:27;;;;;;;;;;;;;;;;;;5060730;28;818;-76
2022/01/27 12:56:53;;;;;;;;;;;;;;;;;;5076856;28;1909;-76
2022/01/27 12:59:19;;;;;;;;;;;;;;;;;;5076832;28;1349;-75
2022/01/27 13:01:54;;;;;;;;;;;;;;;;;;5076847;28;908;-75
2022/01/27 13:04:22;;;;;;;;;;;;;;;;;;5093735;28;890;-76
2022/01/27 13:06:52;;;;;;;;;;;;;;;;;;5094959;28;850;-76
2022/01/27 13:09:17;;;;;;;;;;;;;;;;;;5076113;28;1310;-77
2022/01/27 13:11:42;;;;;;;;;;;;;;;;;;5076497;28;896;-77
2022/01/27 13:14:08;;;;;;;;;;;;;;;;;;5076669;28;1309;-77
2022/01/27 13:16:41;;;;;;;;;;;;;;;;;;5077151;28;1232;-77
2022/01/27 13:19:18;;;;;;;;;;;;;;;;;;5059742;28;1268;-76
2022/01/27 13:21:47;;;;;;;;;;;;;;;;;;5060892;28;1628;-75
2022/01/27 13:24:15;;;;;;;;;;;;;;;;;;5076746;28;1350;-76
2022/01/27 13:26:45;;;;;;;;;;;;;;;;;;5076461;28;1294;-76
2022/01/27 13:29:11;;;;;;;;;;;;;;;;;;5094110;28;927;-74
2022/01/27 13:31:37;;;;;;;;;;;;;;;;;;5077567;28;1570;-73
2022/01/27 13:34:03;;;;;;;;;;;;;;;;;;5078464;28;1105;-72
2022/01/27 13:36:29;;;;;;;;;;;;;;;;;;5095190;28;1210;-72
2022/01/27 13:39:01;;;;;;;;;;;;;;;;;;5093830;28;1963;-72
2022/01/27 13:41:28;;;;;;;;;;;;;;;;;;5095871;28;860;-73
2022/01/27 13:44:01;;;;;;;;;;;;;;;;;;5061131;28;1223;-73
2022/01/27 13:46:45;;;;;;;;;;;;;;;;;;5076497;28;1044;-72
2022/01/27 13:49:22;;;;;;;;;;;;;;;;;;5094762;28;1057;-72
2022/01/27 13:51:59;;;;;;;;;;;;;;;;;;5094971;28;841;-73
2022/01/27 13:54:31;;;;;;;;;;;;;;;;;;5075830;28;1278;-73
2022/01/27 13:57:14;;;;;;;;;;;;;;;;;;5093515;28;1955;-72
2022/01/27 13:59:41;;;;;;;;;;;;;;;;;;5093825;28;825;-72
2022/01/27 14:02:19;;;;;;;;;;;;;;;;;;5094902;28;793;-73
2022/01/27 14:04:46;;;;;;;;;;;;;;;;;;5074701;28;1544;-72
2022/01/27 14:07:12;;;;;;;;;;;;;;;;;;5094076;28;837;-73
2022/01/27 14:09:41;;;;;;;;;;;;;;;;;;5075991;28;1183;-72
2022/01/27 14:12:07;;;;;;;;;;;;;;;;;;5075909;28;927;-73
2022/01/27 14:14:45;;;;;;;;;;;;;;;;;;5074801;28;1215;-73
2022/01/27 14:17:17;;;;;;;;;;;;;;;;;;5094444;28;1961;-71
2022/01/27 14:19:43;;;;;;;;;;;;;;;;;;5074800;28;1439;-71
2022/01/27 14:22:12;;;;;;;;;;;;;;;;;;5074657;28;1325;-72
2022/01/27 14:24:57;;;;;;;;;;;;;;;;;;5093958;28;909;-72
2022/01/27 14:27:30;;;;;;;;;;;;;;;;;;5094179;28;918;-72
2022/01/27 14:29:55;;;;;;;;;;;;;;;;;;5075168;28;1197;-71
2022/01/27 14:32:20;;;;;;;;;;;;;;;;;;5057645;28;1242;-71
2022/01/27 14:34:47;;;;;;;;;;;;;;;;;;5073984;28;1254;-71
2022/01/27 14:37:12;;;;;;;;;;;;;;;;;;5092426;28;1963;-71
2022/01/27 14:39:37;;;;;;;;;;;;;;;;;;5092701;28;935;-71
2022/01/27 14:42:03;;;;;;;;;;;;;;;;;;5060887;28;1087;-70
2022/01/27 14:44:31;;;;;;;;;;;;;;;;;;5092704;28;920;-70
2022/01/27 14:46:58;;;;;;;;;;;;;;;;;;5074946;28;1456;-70
2022/01/27 14:49:23;;;;;;;;;;;;;;;;;;5092605;28;1000;-71
2022/01/27 14:51:50;;;;;;;;;;;;;;;;;;5075129;28;1239;-71
2022/01/27 14:54:15;;;;;;;;;;;;;;;;;;5075945;28;1178;-71
2022/01/27 14:56:41;;;;;;;;;;;;;;;;;;5058051;28;1911;-70
2022/01/27 14:59:08;;;;;;;;;;;;;;;;;;5075763;28;888;-70
2022/01/27 15:01:34;;;;;;;;;;;;;;;;;;5075466;28;841;-70
2022/01/27 15:04:00;;;;;;;;;;;;;;;;;;5075278;28;1220;-70
2022/01/27 15:06:28;;;;;;;;;;;;;;;;;;5074731;28;1200;-70
2022/01/27 15:08:55;;;;;;;;;;;;;;;;;;5075725;28;920;-73
2022/01/27 15:11:21;;;;;;;;;;;;;;;;;;5074775;28;1203;-70
2022/01/27 15:13:48;;;;;;;;;;;;;;;;;;5092717;28;915;-72
2022/01/27 15:19:15;;;;;;;;;;;;;;;;;;5093814;28;1959;-72
2022/01/27 15:21:40;;;;;;;;;;;;;;;;;;5092673;28;844;-70
2022/01/27 15:24:05;;;;;;;;;;;;;;;;;;5075560;28;868;-70
2022/01/27 15:26:32;;;;;;;;;;;;;;;;;;5093933;28;1029;-71
2022/01/27 15:28:57;;;;;;;;;;;;;;;;;;5093849;28;907;-70
2022/01/27 15:31:23;;;;;;;;;;;;;;;;;;5075283;28;1578;-70
2022/01/27 15:33:48;;;;;;;;;;;;;;;;;;5080532;28;786;-70
2022/01/27 15:36:15;;;;;;;;;;;;;;;;;;5062862;28;1184;-70
2022/01/27 15:38:42;;;;;;;;;;;;;;;;;;5079072;28;1967;-70
2022/01/27 15:41:08;;;;;;;;;;;;;;;;;;5098563;28;813;-70
2022/01/27 15:43:33;;;;;;;;;;;;;;;;;;5098534;28;860;-70
2022/01/27 15:46:01;;;;;;;;;;;;;;;;;;5086891;28;915;-70
2022/01/27 15:48:27;;;;;;;;;;;;;;;;;;5079770;28;1240;-70
2022/01/27 15:50:52;;;;;;;;;;;;;;;;;;5062774;28;1167;-70
2022/01/27 15:53:18;;;;;;;;;;;;;;;;;;5097309;28;836;-72
2022/01/27 15:55:43;;;;;;;;;;;;;;;;;;5095913;28;836;-71
2022/01/27 15:58:09;;;;;;;;;;;;;;;;;;5062130;28;1965;-71
2022/01/27 16:00:35;;;;;;;;;;;;;;;;;;5097465;28;841;-71
2022/01/27 16:03:01;;;;;;;;;;;;;;;;;;5063022;28;932;-72
2022/01/27 16:05:27;;;;;;;;;;;;;;;;;;5097314;28;841;-72
2022/01/27 16:07:53;;;;;;;;;;;;;;;;;;5079080;28;1330;-72
2022/01/27 16:10:18;;;;;;;;;;;;;;;;;;5079366;28;1187;-72
2022/01/27 16:12:51;;;;;;;;;;;;;;;;;;5061793;28;994;-72
2022/01/27 16:15:17;;;;;;;;;;;;;;;;;;5097075;28;942;-72
2022/01/27 16:17:42;;;;;;;;;;;;;;;;;;5079097;28;1914;-71
2022/01/27 16:20:12;;;;;;;;;;;;;;;;;;5096886;28;915;-72
2022/01/27 16:22:37;;;;;;;;;;;;;;;;;;5095805;28;888;-71
2022/01/27 16:25:03;;;;;;;;;;;;;;;;;;5095672;28;1011;-71
2022/01/27 16:27:28;;;;;;;;;;;;;;;;;;5096082;28;809;-72
2022/01/27 16:29:54;;;;;;;;;;;;;;;;;;5076995;28;916;-72
2022/01/27 16:32:20;;;;;;;;;;;;;;;;;;5095629;28;874;-71
2022/01/27 16:34:45;;;;;;;;;;;;;;;;;;5095495;28;1173;-71
2022/01/27 16:37:10;;;;;;;;;;;;;;;;;;5096278;28;1917;-71
2022/01/27 16:39:36;;;;;;;;;;;;;;;;;;5061115;28;1276;-71
2022/01/27 16:42:02;;;;;;;;;;;;;;;;;;5078073;28;1003;-72
2022/01/27 16:44:27;;;;;;;;;;;;;;;;;;5096124;28;809;-71
2022/01/27 16:46:52;;;;;;;;;;;;;;;;;;5077745;28;928;-71
2022/01/27 16:49:18;;;;;;;;;;;;;;;;;;5078088;28;1506;-71
2022/01/27 16:51:43;;;;;;;;;;;;;;;;;;5095138;28;847;-71
2022/01/27 16:54:09;;;;;;;;;;;;;;;;;;5095585;28;833;-71
2022/01/27 16:56:35;;;;;;;;;;;;;;;;;;5077554;28;1378;-72
2022/01/27 16:59:00;;;;;;;;;;;;;;;;;;5077613;28;1963;-71
2022/01/27 17:01:25;;;;;;;;;;;;;;;;;;5060420;28;1070;-72
2022/01/27 17:03:51;;;;;;;;;;;;;;;;;;5077242;28;812;-72
2022/01/27 17:06:16;;;;;;;;;;;;;;;;;;5076849;28;1411;-72
2022/01/27 17:08:42;;;;;;;;;;;;;;;;;;5094846;28;876;-72
2022/01/27 17:11:07;;;;;;;;;;;;;;;;;;5094729;28;963;-71
2022/01/27 17:13:32;;;;;;;;;;;;;;;;;;5095174;28;855;-72
2022/01/27 17:15:58;;;;;;;;;;;;;;;;;;5076760;28;889;-71
2022/01/27 17:18:24;;;;;;;;;;;;;;;;;;5060060;28;1910;-71
2022/01/27 17:20:50;;;;;;;;;;;;;;;;;;5077167;28;841;-71
2022/01/27 17:23:15;;;;;;;;;;;;;;;;;;5076412;28;1179;-72
2022/01/27 17:25:40;;;;;;;;;;;;;;;;;;5094776;28;904;-72
2022/01/27 17:28:06;;;;;;;;;;;;;;;;;;5076433;28;1234;-71
2022/01/27 17:30:31;;;;;;;;;;;;;;;;;;5076629;28;921;-72
2022/01/27 17:32:57;;;;;;;;;;;;;;;;;;5094360;28;1070;-72
2022/01/27 17:35:22;;;;;;;;;;;;;;;;;;5076690;28;1403;-71
2022/01/27 17:37:48;;;;;;;;;;;;;;;;;;5076485;28;1938;-72
2022/01/27 17:40:15;;;;;;;;;;;;;;;;;;5095256;28;842;-72
2022/01/27 17:42:50;;;;;;;;;;;;;;;;;;5094299;28;861;-72
2022/01/27 17:45:15;;;;;;;;;;;;;;;;;;5076596;28;1074;-71
2022/01/27 17:47:40;;;;;;;;;;;;;;;;;;5094180;28;856;-71
2022/01/27 17:50:06;;;;;;;;;;;;;;;;;;5059949;28;1075;-71
2022/01/27 17:52:31;;;;;;;;;;;;;;;;;;5094125;28;967;-71
2022/01/27 17:54:57;;;;;;;;;;;;;;;;;;5093394;28;868;-71
2022/01/27 17:57:22;;;;;;;;;;;;;;;;;;5076249;28;1898;-71
2022/01/27 17:59:48;;;;;;;;;;;;;;;;;;5094140;28;856;-71
2022/01/27 18:02:13;;;;;;;;;;;;;;;;;;5094143;28;981;-71
2022/01/27 18:04:39;;;;;;;;;;;;;;;;;;5093680;28;1038;-71
2022/01/27 18:07:08;;;;;;;;;;;;;;;;;;5076040;28;880;-71
2022/01/27 18:09:37;;;;;;;;;;;;;;;;;;5094080;28;837;-72
2022/01/27 18:12:03;;;;;;;;;;;;;;;;;;5075573;28;870;-72
2022/01/27 18:14:28;;;;;;;;;;;;;;;;;;5093675;28;922;-71
2022/01/27 18:16:55;;;;;;;;;;;;;;;;;;5092546;28;1894;-71
2022/01/27 18:19:21;;;;;;;;;;;;;;;;;;5075589;28;915;-72